createdAt,value
2018-07-12T00:01:54.819Z,11.27
2018-07-12T00:04:22.167Z,11.23
2018-07-12T00:06:49.525Z,11.43
2018-07-12T00:09:16.885Z,14.07
2018-07-12T00:11:44.273Z,9.50
2018-07-12T00:14:11.619Z,12.63
2018-07-12T00:16:38.975Z,10.67
2018-07-12T00:19:06.355Z,11.60
2018-07-12T00:21:33.687Z,17.40
2018-07-12T00:24:01.073Z,11.67
2018-07-12T00:26:28.431Z,15.63
2018-07-12T00:28:55.787Z,13.23
2018-07-12T00:31:23.120Z,14.70
2018-07-12T00:33:50.530Z,11.30
2018-07-12T00:36:17.870Z,9.67
2018-07-12T00:38:45.513Z,14.00
2018-07-12T00:41:12.911Z,9.47
2018-07-12T00:43:41.632Z,15.20
2018-07-12T00:46:09.267Z,10.97
2018-07-12T00:48:36.633Z,13.83
2018-07-12T00:51:03.978Z,10.10
2018-07-12T00:53:31.315Z,14.30
2018-07-12T00:55:58.674Z,9.53
2018-07-12T00:58:26.040Z,10.20
2018-07-12T01:00:53.433Z,22.10
2018-07-12T01:03:20.774Z,18.33
2018-07-12T01:05:48.144Z,16.17
2018-07-12T01:08:15.534Z,12.10
2018-07-12T01:10:42.860Z,10.50
2018-07-12T01:13:10.245Z,12.67
2018-07-12T01:15:37.594Z,10.43
2018-07-12T01:18:05.005Z,22.93
2018-07-12T01:20:32.385Z,14.10
2018-07-12T01:22:59.742Z,11.07
2018-07-12T01:25:27.100Z,20.10
2018-07-12T01:27:54.468Z,13.03
2018-07-12T01:30:21.840Z,16.60
2018-07-12T01:32:49.212Z,11.93
2018-07-12T01:35:16.581Z,10.73
2018-07-12T01:37:43.952Z,14.70
2018-07-12T01:40:11.346Z,12.20
2018-07-12T01:42:38.683Z,9.00
2018-07-12T01:45:06.057Z,12.07
2018-07-12T01:47:33.384Z,12.87
2018-07-12T01:50:00.770Z,19.63
2018-07-12T01:52:28.119Z,10.80
2018-07-12T01:54:55.540Z,22.40
2018-07-12T01:57:22.909Z,12.13
2018-07-12T01:59:50.262Z,10.33
2018-07-12T02:02:17.662Z,13.63
2018-07-12T02:04:45.019Z,13.37
2018-07-12T02:07:12.365Z,16.70
2018-07-12T02:09:39.714Z,13.20
2018-07-12T02:12:07.070Z,18.43
2018-07-12T02:14:34.445Z,27.17
2018-07-12T02:17:01.871Z,13.17
2018-07-12T02:19:29.189Z,10.73
2018-07-12T02:21:56.543Z,14.70
2018-07-12T02:24:23.883Z,15.83
2018-07-12T02:26:51.234Z,18.47
2018-07-12T02:29:18.588Z,13.00
2018-07-12T02:31:45.926Z,15.53
2018-07-12T02:34:13.324Z,14.20
2018-07-12T02:36:40.658Z,15.30
2018-07-12T02:39:08.015Z,14.77
2018-07-12T02:41:36.390Z,12.97
2018-07-12T02:44:03.772Z,12.67
2018-07-12T02:46:31.158Z,16.10
2018-07-12T02:48:58.492Z,13.70
2018-07-12T02:51:25.830Z,18.60
2018-07-12T02:53:53.194Z,11.70
2018-07-12T02:56:20.560Z,10.53
2018-07-12T02:58:47.919Z,13.07
2018-07-12T03:01:15.312Z,14.07
2018-07-12T03:03:42.677Z,14.47
2018-07-12T03:06:10.035Z,13.93
2018-07-12T03:08:37.401Z,19.00
2018-07-12T03:11:04.757Z,12.50
2018-07-12T03:13:32.112Z,12.47
2018-07-12T03:15:59.483Z,11.47
2018-07-12T03:18:26.815Z,12.20
2018-07-12T03:20:54.162Z,14.80
2018-07-12T03:23:21.495Z,14.17
2018-07-12T03:25:48.844Z,13.70
2018-07-12T03:28:16.214Z,14.90
2018-07-12T03:30:43.568Z,15.30
2018-07-12T03:33:10.903Z,12.70
2018-07-12T03:35:38.268Z,16.67
2018-07-12T03:38:05.604Z,17.60
2018-07-12T03:40:33.061Z,19.17
2018-07-12T03:43:00.367Z,13.33
2018-07-12T03:45:27.736Z,13.90
2018-07-12T03:47:55.074Z,12.00
2018-07-12T03:50:22.434Z,16.30
2018-07-12T03:52:49.795Z,21.30
2018-07-12T03:55:17.144Z,14.90
2018-07-12T03:57:44.572Z,13.07
2018-07-12T04:00:11.952Z,11.17
2018-07-12T04:02:39.304Z,9.67
2018-07-12T04:05:06.661Z,13.10
2018-07-12T04:07:33.998Z,11.90
2018-07-12T04:10:01.351Z,13.50
2018-07-12T04:12:28.725Z,18.33
2018-07-12T04:14:56.048Z,15.30
2018-07-12T04:17:30.935Z,12.07
2018-07-12T04:19:59.618Z,16.83
2018-07-12T04:22:28.254Z,17.13
2018-07-12T04:24:55.611Z,15.37
2018-07-12T04:27:23.432Z,18.73
2018-07-12T04:29:55.812Z,13.57
2018-07-12T04:32:23.168Z,18.00
2018-07-12T04:34:51.024Z,14.43
2018-07-12T04:37:18.572Z,13.23
2018-07-12T04:39:46.224Z,10.97
2018-07-12T04:42:13.587Z,13.40
2018-07-12T04:44:40.938Z,11.83
2018-07-12T04:47:08.266Z,11.13
2018-07-12T04:49:35.638Z,12.30
2018-07-12T04:52:02.967Z,12.50
2018-07-12T04:54:30.350Z,13.47
2018-07-12T04:56:57.667Z,13.50
2018-07-12T04:59:25.008Z,11.10
2018-07-12T05:01:52.386Z,10.90
2018-07-12T05:04:19.729Z,15.90
2018-07-12T05:06:47.086Z,13.90
2018-07-12T05:09:14.425Z,14.43
2018-07-12T05:11:41.950Z,12.60
2018-07-12T05:14:09.314Z,15.07
2018-07-12T05:16:36.645Z,9.70
2018-07-12T05:19:04.014Z,13.00
2018-07-12T05:21:31.359Z,11.30
2018-07-12T05:23:58.713Z,11.33
2018-07-12T05:26:26.079Z,16.40
2018-07-12T05:28:53.465Z,10.63
2018-07-12T05:31:20.849Z,9.60
2018-07-12T05:33:48.183Z,13.73
2018-07-12T05:36:35.071Z,10.07
2018-07-12T05:39:03.996Z,10.13
2018-07-12T05:41:32.556Z,12.80
2018-07-12T05:44:01.095Z,13.97
2018-07-12T05:46:29.617Z,10.77
2018-07-12T05:48:58.153Z,14.10
2018-07-12T05:51:26.692Z,14.93
2018-07-12T05:53:55.192Z,11.27
2018-07-12T05:56:23.734Z,11.67
2018-07-12T05:58:52.633Z,13.73
2018-07-12T06:01:32.492Z,16.87
2018-07-12T06:04:00.985Z,8.53
2018-07-12T06:06:29.463Z,9.97
2018-07-12T06:08:57.991Z,8.20
2018-07-12T06:11:26.527Z,13.90
2018-07-12T06:13:55.047Z,10.67
2018-07-12T06:16:23.580Z,12.77
2018-07-12T06:18:52.070Z,11.33
2018-07-12T06:21:20.599Z,11.53
2018-07-12T06:23:49.125Z,9.50
2018-07-12T06:26:17.754Z,10.10
2018-07-12T06:28:46.276Z,16.93
2018-07-12T06:31:14.919Z,16.37
2018-07-12T06:33:43.438Z,9.43
2018-07-12T06:36:11.987Z,6.93
2018-07-12T06:38:40.496Z,8.90
2018-07-12T06:41:08.996Z,11.83
2018-07-12T06:43:37.537Z,8.13
2018-07-12T06:46:06.182Z,10.70
2018-07-12T06:48:34.737Z,10.57
2018-07-12T06:51:03.242Z,9.73
2018-07-12T06:53:31.859Z,10.70
2018-07-12T06:56:00.348Z,14.07
2018-07-12T06:58:28.909Z,8.40
2018-07-12T07:00:57.378Z,7.43
2018-07-12T07:03:25.971Z,6.37
2018-07-12T07:05:54.604Z,9.17
2018-07-12T07:08:23.074Z,12.10
2018-07-12T07:10:51.633Z,8.93
2018-07-12T07:13:20.197Z,16.00
2018-07-12T07:15:48.729Z,10.30
2018-07-12T07:18:17.223Z,8.17
2018-07-12T07:20:45.738Z,15.37
2018-07-12T07:23:14.311Z,16.03
2018-07-12T07:25:42.845Z,7.60
2018-07-12T07:28:11.410Z,12.60
2018-07-12T07:30:39.962Z,7.00
2018-07-12T07:33:08.534Z,16.53
2018-07-12T07:35:37.145Z,7.10
2018-07-12T07:38:05.812Z,7.00
2018-07-12T07:40:34.572Z,6.10
2018-07-12T07:43:03.462Z,11.77
2018-07-12T07:45:31.976Z,9.73
2018-07-12T07:48:00.495Z,7.90
2018-07-12T07:50:29.078Z,8.23
2018-07-12T07:52:57.583Z,9.07
2018-07-12T07:55:26.124Z,6.80
2018-07-12T07:57:54.669Z,6.47
2018-07-12T08:00:23.295Z,5.37
2018-07-12T08:02:51.818Z,5.97
2018-07-12T08:05:20.347Z,5.20
2018-07-12T08:07:48.862Z,8.73
2018-07-12T08:10:17.406Z,9.03
2018-07-12T08:12:45.960Z,2.63
2018-07-12T08:15:14.715Z,6.60
2018-07-12T08:17:43.378Z,4.33
2018-07-12T08:20:12.034Z,7.70
2018-07-12T08:22:40.556Z,4.50
2018-07-12T08:25:09.133Z,3.97
2018-07-12T08:27:43.302Z,2.60
2018-07-12T08:30:11.836Z,4.27
2018-07-12T08:32:40.380Z,2.90
2018-07-12T08:35:08.881Z,3.87
2018-07-12T08:37:37.407Z,4.70
2018-07-12T08:40:06.024Z,6.00
2018-07-12T08:42:34.714Z,4.50
2018-07-12T08:45:03.167Z,6.33
2018-07-12T08:47:31.673Z,4.80
2018-07-12T08:50:00.200Z,3.40
2018-07-12T08:52:28.732Z,3.13
2018-07-12T08:54:57.247Z,5.83
2018-07-12T08:57:25.751Z,4.10
2018-07-12T08:59:54.261Z,20.40
2018-07-12T09:02:22.840Z,6.33
2018-07-12T09:04:51.403Z,3.60
2018-07-12T09:07:19.914Z,5.40
2018-07-12T09:09:48.412Z,4.37
2018-07-12T09:12:16.931Z,7.10
2018-07-12T09:14:45.638Z,2.57
2018-07-12T09:17:14.365Z,12.10
2018-07-12T09:19:42.920Z,4.50
2018-07-12T09:22:11.430Z,4.67
2018-07-12T09:24:39.930Z,5.03
2018-07-12T09:27:08.481Z,5.30
2018-07-12T09:29:37.007Z,6.77
2018-07-12T09:32:05.547Z,3.50
2018-07-12T09:34:34.069Z,3.20
2018-07-12T09:37:02.632Z,2.83
2018-07-12T09:39:31.110Z,6.00
2018-07-12T09:41:59.610Z,4.53
2018-07-12T09:44:28.134Z,3.60
2018-07-12T09:46:56.638Z,6.60
2018-07-12T09:49:25.205Z,2.63
2018-07-12T09:51:53.998Z,4.30
2018-07-12T09:54:22.507Z,2.50
2018-07-12T09:57:02.353Z,5.80
2018-07-12T09:59:30.842Z,3.00
2018-07-12T10:02:04.668Z,14.57
2018-07-12T10:04:33.161Z,2.20
2018-07-12T10:07:06.963Z,3.83
2018-07-12T10:09:40.769Z,3.17
2018-07-12T10:12:15.273Z,1.80
2018-07-12T10:14:49.152Z,2.83
2018-07-12T10:17:23.068Z,2.13
2018-07-12T10:19:51.614Z,7.27
2018-07-12T10:22:20.093Z,4.03
2018-07-12T10:24:48.641Z,4.10
2018-07-12T10:27:17.152Z,2.77
2018-07-12T10:29:45.773Z,2.03
2018-07-12T10:32:14.279Z,2.30
2018-07-12T10:34:42.820Z,3.47
2018-07-12T10:37:11.324Z,3.17
2018-07-12T10:39:39.812Z,2.10
2018-07-12T10:42:08.317Z,2.83
2018-07-12T10:44:36.854Z,1.73
2018-07-12T10:47:05.620Z,6.10
2018-07-12T10:49:34.176Z,1.80
2018-07-12T10:52:02.718Z,4.10
2018-07-12T10:54:31.249Z,1.80
2018-07-12T10:56:59.749Z,1.70
2018-07-12T10:59:28.314Z,2.40
2018-07-12T11:01:56.817Z,1.80
2018-07-12T11:04:25.329Z,4.17
2018-07-12T11:06:53.852Z,3.73
2018-07-12T11:09:22.426Z,1.90
2018-07-12T11:11:50.938Z,2.67
2018-07-12T11:14:19.463Z,2.10
2018-07-12T11:16:47.963Z,1.87
2018-07-12T11:19:16.588Z,1.57
2018-07-12T11:21:45.175Z,1.27
2018-07-12T11:24:13.330Z,1.10
2018-07-12T11:26:41.832Z,1.30
2018-07-12T11:29:09.997Z,1.53
2018-07-12T11:31:38.553Z,2.00
2018-07-12T11:34:07.067Z,2.17
2018-07-12T11:36:35.612Z,1.90
2018-07-12T11:39:05.443Z,4.63
2018-07-12T11:41:33.944Z,5.20
2018-07-12T11:44:02.491Z,1.90
2018-07-12T11:46:31.008Z,2.17
2018-07-12T11:48:59.528Z,2.17
2018-07-12T11:51:28.072Z,2.00
2018-07-12T11:53:56.611Z,4.00
2018-07-12T11:56:25.169Z,3.73
2018-07-12T11:58:53.711Z,3.23
2018-07-12T12:01:22.310Z,5.30
2018-07-12T12:03:50.837Z,2.10
2018-07-12T12:06:19.385Z,1.87
2018-07-12T12:08:47.965Z,2.10
2018-07-12T12:11:16.460Z,7.30
2018-07-12T12:13:44.991Z,2.13
2018-07-12T12:16:13.545Z,1.83
2018-07-12T12:18:42.081Z,2.20
2018-07-12T12:21:10.623Z,6.90
2018-07-12T12:23:39.189Z,1.80
2018-07-12T12:26:07.734Z,3.47
2018-07-12T12:28:36.261Z,1.40
2018-07-12T12:31:04.814Z,4.50
2018-07-12T12:33:33.414Z,6.13
2018-07-12T12:36:01.851Z,3.27
2018-07-12T12:38:30.473Z,1.63
2018-07-12T12:40:59.001Z,6.00
2018-07-12T12:43:27.512Z,1.80
2018-07-12T12:45:56.070Z,4.73
2018-07-12T12:48:24.586Z,1.77
2018-07-12T12:50:53.190Z,1.63
2018-07-12T12:53:21.667Z,1.53
2018-07-12T12:55:50.426Z,1.57
2018-07-12T12:58:19.254Z,3.43
2018-07-12T13:00:47.823Z,2.30
2018-07-12T13:03:16.364Z,1.90
2018-07-12T13:05:44.896Z,1.53
2018-07-12T13:08:13.430Z,1.67
2018-07-12T13:10:41.976Z,4.27
2018-07-12T13:13:10.487Z,1.80
2018-07-12T13:15:39.039Z,2.13
2018-07-12T13:18:07.616Z,4.63
2018-07-12T13:20:36.156Z,4.23
2018-07-12T13:23:04.368Z,4.00
2018-07-12T13:25:32.913Z,1.60
2018-07-12T13:28:01.453Z,7.17
2018-07-12T13:30:30.029Z,2.70
2018-07-12T13:32:58.781Z,2.53
2018-07-12T13:35:27.437Z,1.70
2018-07-12T13:37:56.014Z,2.00
2018-07-12T13:40:24.553Z,5.60
2018-07-12T13:42:53.077Z,3.30
2018-07-12T13:45:21.612Z,1.97
2018-07-12T13:47:50.153Z,1.90
2018-07-12T13:50:18.688Z,1.67
2018-07-12T13:52:47.223Z,8.33
2018-07-12T13:55:15.787Z,2.80
2018-07-12T13:57:44.286Z,6.73
2018-07-12T14:00:12.847Z,2.77
2018-07-12T14:02:41.370Z,4.87
2018-07-12T14:05:09.919Z,2.57
2018-07-12T14:07:38.440Z,15.33
2018-07-12T14:10:06.970Z,4.40
2018-07-12T14:12:35.527Z,2.27
2018-07-12T14:15:04.099Z,2.47
2018-07-12T14:17:32.608Z,2.97
2018-07-12T14:20:01.113Z,2.63
2018-07-12T14:22:29.620Z,3.97
2018-07-12T14:24:58.159Z,8.53
2018-07-12T14:27:26.670Z,4.20
2018-07-12T14:29:55.257Z,2.50
2018-07-12T14:32:23.793Z,2.20
2018-07-12T14:34:52.354Z,2.27
2018-07-12T14:37:20.943Z,4.37
2018-07-12T14:39:49.441Z,3.30
2018-07-12T14:42:18.298Z,3.50
2018-07-12T14:44:46.869Z,4.23
2018-07-12T14:47:15.357Z,5.40
2018-07-12T14:49:43.846Z,3.37
2018-07-12T14:52:12.364Z,9.53
2018-07-12T14:54:40.881Z,2.20
2018-07-12T14:57:09.420Z,3.73
2018-07-12T14:59:38.181Z,18.47
2018-07-12T15:02:07.043Z,5.37
2018-07-12T15:04:35.539Z,2.97
2018-07-12T15:07:05.057Z,3.60
2018-07-12T15:09:34.111Z,3.10
2018-07-12T15:12:03.304Z,4.03
2018-07-12T15:14:32.217Z,2.00
2018-07-12T15:17:00.787Z,3.63
2018-07-12T15:19:29.429Z,2.60
2018-07-12T15:21:57.927Z,4.03
2018-07-12T15:24:26.787Z,2.03
2018-07-12T15:26:55.400Z,13.90
2018-07-12T15:29:23.971Z,2.27
2018-07-12T15:31:52.422Z,2.17
2018-07-12T15:34:21.014Z,3.33
2018-07-12T15:36:49.553Z,2.00
2018-07-12T15:39:18.064Z,2.57
2018-07-12T15:41:46.547Z,4.63
2018-07-12T15:44:15.067Z,2.30
2018-07-12T15:46:43.576Z,17.80
2018-07-12T15:49:12.103Z,4.80
2018-07-12T15:51:40.599Z,3.37
2018-07-12T15:54:09.128Z,9.57
2018-07-12T15:56:37.662Z,2.10
2018-07-12T15:59:06.179Z,2.00
2018-07-12T16:01:34.744Z,2.90
2018-07-12T16:04:03.330Z,2.20
2018-07-12T16:06:31.802Z,3.10
2018-07-12T16:09:00.318Z,3.27
2018-07-12T16:11:28.806Z,5.50
2018-07-12T16:13:57.306Z,2.00
2018-07-12T16:16:25.850Z,3.17
2018-07-12T16:18:54.391Z,2.57
2018-07-12T16:21:22.934Z,3.47
2018-07-12T16:23:51.502Z,3.03
2018-07-12T16:26:20.061Z,2.40
2018-07-12T16:28:48.669Z,2.53
2018-07-12T16:31:17.192Z,2.73
2018-07-12T16:33:45.713Z,5.50
2018-07-12T16:36:14.261Z,25.97
2018-07-12T16:38:42.742Z,8.93
2018-07-12T16:41:11.401Z,16.13
2018-07-12T16:43:39.894Z,4.10
2018-07-12T16:46:08.488Z,3.10
2018-07-12T16:48:37.023Z,4.53
2018-07-12T16:51:05.561Z,6.70
2018-07-12T16:53:34.262Z,2.93
2018-07-12T16:56:02.833Z,4.77
2018-07-12T16:58:31.330Z,3.40
2018-07-12T17:00:59.903Z,6.53
2018-07-12T17:03:28.423Z,3.50
2018-07-12T17:05:56.939Z,2.93
2018-07-12T17:08:25.467Z,3.43
2018-07-12T17:10:54.013Z,3.33
2018-07-12T17:13:22.540Z,4.80
2018-07-12T17:15:51.075Z,3.20
2018-07-12T17:18:19.664Z,3.80
2018-07-12T17:20:48.238Z,7.33
2018-07-12T17:23:16.768Z,10.60
2018-07-12T17:25:45.308Z,2.70
2018-07-12T17:28:13.839Z,8.13
2018-07-12T17:30:42.401Z,2.60
2018-07-12T17:33:10.970Z,2.77
2018-07-12T17:35:39.525Z,4.67
2018-07-12T17:38:08.067Z,3.10
2018-07-12T17:40:36.564Z,2.70
2018-07-12T17:43:05.168Z,7.23
2018-07-12T17:45:33.937Z,3.63
2018-07-12T17:48:02.492Z,5.60
2018-07-12T17:50:31.024Z,3.80
2018-07-12T17:52:59.565Z,3.43
2018-07-12T17:55:28.115Z,3.03
2018-07-12T17:57:56.609Z,4.43
2018-07-12T18:00:25.162Z,4.97
2018-07-12T18:02:53.714Z,3.43
2018-07-12T18:05:22.416Z,4.73
2018-07-12T18:07:50.843Z,3.20
2018-07-12T18:10:19.635Z,5.93
2018-07-12T18:12:48.545Z,3.13
2018-07-12T18:15:17.040Z,8.50
2018-07-12T18:17:45.533Z,3.60
2018-07-12T18:20:14.304Z,9.13
2018-07-12T18:22:42.827Z,8.70
2018-07-12T18:25:11.393Z,6.70
2018-07-12T18:27:39.916Z,3.87
2018-07-12T18:30:08.809Z,6.87
2018-07-12T18:32:37.803Z,9.10
2018-07-12T18:35:06.368Z,11.57
2018-07-12T18:37:34.558Z,3.27
2018-07-12T18:40:03.125Z,3.40
2018-07-12T18:42:31.595Z,11.47
2018-07-12T18:45:00.121Z,6.87
2018-07-12T18:47:28.682Z,6.20
2018-07-12T18:49:57.244Z,5.10
2018-07-12T18:52:25.789Z,5.87
2018-07-12T18:54:54.407Z,5.30
2018-07-12T18:57:23.105Z,6.57
2018-07-12T18:59:51.618Z,3.70
2018-07-12T19:02:20.130Z,6.83
2018-07-12T19:04:48.655Z,4.70
2018-07-12T19:07:17.142Z,4.27
2018-07-12T19:09:45.655Z,3.93
2018-07-12T19:12:14.193Z,5.57
2018-07-12T19:14:42.750Z,3.93
2018-07-12T19:17:11.231Z,7.03
2018-07-12T19:19:39.788Z,4.37
2018-07-12T19:22:08.322Z,3.80
2018-07-12T19:24:36.828Z,4.47
2018-07-12T19:27:05.423Z,5.40
2018-07-12T19:29:33.957Z,6.43
2018-07-12T19:32:02.474Z,5.83
2018-07-12T19:34:31.047Z,6.13
2018-07-12T19:36:59.598Z,11.67
2018-07-12T19:39:28.146Z,3.53
2018-07-12T19:41:57.519Z,6.40
2018-07-12T19:44:26.048Z,6.63
2018-07-12T19:46:54.604Z,8.70
2018-07-12T19:49:23.171Z,5.03
2018-07-12T19:51:56.186Z,5.53
2018-07-12T19:54:26.831Z,5.77
2018-07-12T19:56:55.798Z,4.37
2018-07-12T19:59:24.314Z,6.97
2018-07-12T20:01:52.858Z,5.53
2018-07-12T20:04:21.405Z,5.33
2018-07-12T20:06:49.985Z,5.50
2018-07-12T20:09:18.527Z,4.50
2018-07-12T20:11:47.086Z,4.77
2018-07-12T20:14:15.629Z,4.40
2018-07-12T20:16:44.166Z,5.13
2018-07-12T20:19:12.695Z,8.33
2018-07-12T20:21:41.265Z,4.07
2018-07-12T20:24:09.808Z,3.87
2018-07-12T20:26:38.568Z,15.13
2018-07-12T20:29:06.776Z,5.43
2018-07-12T20:31:35.941Z,6.20
2018-07-12T20:34:04.597Z,5.83
2018-07-12T20:36:33.099Z,18.53
2018-07-12T20:39:01.674Z,6.10
2018-07-12T20:41:30.907Z,5.83
2018-07-12T20:43:59.414Z,9.20
2018-07-12T20:46:28.574Z,7.33
2018-07-12T20:48:57.091Z,8.27
2018-07-12T20:51:25.701Z,5.63
2018-07-12T20:53:54.219Z,10.27
2018-07-12T20:56:22.733Z,21.83
2018-07-12T20:58:51.272Z,13.33
2018-07-12T21:01:19.790Z,5.47
2018-07-12T21:03:48.412Z,6.80
2018-07-12T21:06:16.990Z,6.80
2018-07-12T21:08:45.502Z,11.43
2018-07-12T21:11:14.131Z,6.10
2018-07-12T21:13:42.651Z,9.43
2018-07-12T21:16:11.160Z,5.27
2018-07-12T21:18:39.651Z,5.57
2018-07-12T21:21:08.224Z,6.43
2018-07-12T21:23:36.830Z,7.50
2018-07-12T21:26:05.324Z,6.40
2018-07-12T21:28:33.875Z,5.60
2018-07-12T21:31:02.381Z,8.67
2018-07-12T21:33:31.003Z,8.10
2018-07-12T21:35:59.452Z,7.30
2018-07-12T21:38:28.022Z,7.97
2018-07-12T21:40:56.596Z,5.33
2018-07-12T21:43:25.119Z,6.80
2018-07-12T21:45:53.706Z,7.80
2018-07-12T21:48:22.255Z,7.23
2018-07-12T21:50:50.806Z,8.20
2018-07-12T21:53:19.347Z,6.50
2018-07-12T21:55:47.870Z,5.93
2018-07-12T21:58:16.375Z,12.23
2018-07-12T22:00:44.895Z,11.60
2018-07-12T22:03:13.413Z,7.23
2018-07-12T22:05:42.009Z,8.97
2018-07-12T22:08:19.758Z,5.70
2018-07-12T22:10:49.643Z,9.00
2018-07-12T22:13:18.833Z,5.27
2018-07-12T22:15:47.346Z,9.07
2018-07-12T22:18:15.901Z,7.07
2018-07-12T22:20:44.411Z,7.47
2018-07-12T22:23:12.954Z,6.97
2018-07-12T22:25:41.516Z,8.27
2018-07-12T22:28:10.040Z,4.73
2018-07-12T22:30:38.697Z,7.20
2018-07-12T22:33:07.140Z,6.57
2018-07-12T22:35:35.696Z,9.10
2018-07-12T22:38:04.673Z,9.80
2018-07-12T22:40:33.438Z,12.23
2018-07-12T22:43:01.993Z,7.90
2018-07-12T22:45:30.502Z,6.13
2018-07-12T22:47:58.793Z,10.47
2018-07-12T22:50:27.295Z,5.90
2018-07-12T22:52:55.835Z,7.97
2018-07-12T22:55:24.386Z,10.27
2018-07-12T22:57:52.876Z,7.10
2018-07-12T23:00:21.418Z,6.40
2018-07-12T23:02:50.045Z,7.43
2018-07-12T23:05:18.623Z,6.60
2018-07-12T23:07:47.156Z,6.23
2018-07-12T23:10:15.657Z,8.47
2018-07-12T23:12:44.181Z,7.50
2018-07-12T23:15:12.669Z,15.63
2018-07-12T23:17:41.182Z,8.97
2018-07-12T23:20:09.746Z,6.00
2018-07-12T23:22:38.288Z,7.30
2018-07-12T23:25:06.836Z,9.70
2018-07-12T23:27:35.320Z,6.90
2018-07-12T23:30:04.081Z,8.90
2018-07-12T23:32:32.632Z,10.20
2018-07-12T23:35:01.176Z,8.03
2018-07-12T23:37:29.708Z,7.07
2018-07-12T23:39:58.207Z,5.93
2018-07-12T23:42:26.756Z,12.33
2018-07-12T23:44:55.505Z,9.90
2018-07-12T23:47:24.032Z,9.03
2018-07-12T23:49:52.614Z,7.70
2018-07-12T23:52:21.137Z,7.70
2018-07-12T23:54:49.683Z,8.20
2018-07-12T23:57:18.273Z,7.77
2018-07-12T23:59:46.826Z,9.20
